hwlogo.jpg (8581 bytes)
Home Your Weather Products Services Weather On Your Site Contact
HW Version Logo
Weather Info
Your Weather (Options)
Canadian Weather
International Weather
Enter your " Place, State", US Zip Code or ICAO:  
Forecast Information Radar Information
Smithers, British Columbia, Canada  Lat: 54.80N, Lon: 127.18W
ICAO Used: CYYD
Current Conditions
Updated: 5:00 AM PST MON FEB 19 2018
Sun & Moon Information
Clear
Clear
Temp: -24°C
Humidity: 83%
Wind Speed: SSE 5 MPH
Barometer: 1025 mb
Dewpoint: -26°C
Heat Index: -24°C
Wind Chill: -31°C
Civil Twilight: 7:07 AM PST Moon Phase:
Waxing Crescent Moon
Sunrise: 7:45 AM PST
Sunset: 5:40 PM PST
Civil Twilight: 6:17 PM PST
Forecast for Smithers, BC:
(Forecast based on TAF for )
0645 AM PST MON FEB 19 2018
  
MORNING AFTERNOON EVENING OVERNIGHT
Partly
Cloudy
Partly
Cloudy
Partly
Cloudy
Partly
Cloudy
ZoneCast:
Dated: 0645 AM PST MON FEB 19 2018
Morning...Partly cloudy winds variable in direction at 3 mph.

Afternoon...Partly cloudy winds variable in direction at 3 mph.

Evening...Partly cloudy winds variable in direction at 3 mph.

Overnight...Partly cloudy winds variable in direction at 3 mph.

Original Encoded TAF:
Dated: 0645 AM PST MON FEB 19 2018
2018/02/19 14:45
TAF CYYD 191342Z 1914/2002 VRB03KT P6SM FEW120 SCT180 
      RMK FCST BASED ON AUTO OBS. NXT FCST BY 191900Z